sensor_id;sensor_type;location;lat;lon;timestamp;temperature;humidity
3996;DHT22;2012;49.794;9.722;2023-09-19T00:00:44;17.80;99.90
3996;DHT22;2012;49.794;9.722;2023-09-19T00:03:14;17.80;99.90
3996;DHT22;2012;49.794;9.722;2023-09-19T00:05:42;17.80;99.90
3996;DHT22;2012;49.794;9.722;2023-09-19T00:08:13;17.70;99.90
3996;DHT22;2012;49.794;9.722;2023-09-19T00:10:43;17.80;99.90
3996;DHT22;2012;49.794;9.722;2023-09-19T00:13:10;17.80;99.90
3996;DHT22;2012;49.794;9.722;2023-09-19T00:15:46;17.80;99.90
3996;DHT22;2012;49.794;9.722;2023-09-19T00:18:20;17.60;99.90
3996;DHT22;2012;49.794;9.722;2023-09-19T00:20:50;17.70;99.90
3996;DHT22;2012;49.794;9.722;2023-09-19T00:23:19;17.80;99.90
3996;DHT22;2012;49.794;9.722;2023-09-19T00:25:47;17.70;99.90
3996;DHT22;2012;49.794;9.722;2023-09-19T00:28:14;17.70;99.90
3996;DHT22;2012;49.794;9.722;2023-09-19T00:30:45;17.60;99.90
3996;DHT22;2012;49.794;9.722;2023-09-19T00:33:20;17.60;99.90
3996;DHT22;2012;49.794;9.722;2023-09-19T00:35:49;17.60;99.90
3996;DHT22;2012;49.794;9.722;2023-09-19T00:38:16;17.60;99.90
3996;DHT22;2012;49.794;9.722;2023-09-19T00:40:45;17.50;99.90
3996;DHT22;2012;49.794;9.722;2023-09-19T00:43:12;17.50;99.90
3996;DHT22;2012;49.794;9.722;2023-09-19T00:45:43;17.50;99.90
3996;DHT22;2012;49.794;9.722;2023-09-19T00:48:10;17.40;99.90
3996;DHT22;2012;49.794;9.722;2023-09-19T00:50:41;17.40;99.90
3996;DHT22;2012;49.794;9.722;2023-09-19T00:53:14;17.40;99.90
3996;DHT22;2012;49.794;9.722;2023-09-19T00:55:42;17.40;99.90
3996;DHT22;2012;49.794;9.722;2023-09-19T00:58:11;17.40;99.90
3996;DHT22;2012;49.794;9.722;2023-09-19T01:00:40;17.40;99.90
3996;DHT22;2012;49.794;9.722;2023-09-19T01:03:07;17.40;99.90
3996;DHT22;2012;49.794;9.722;2023-09-19T01:05:34;17.40;99.90
3996;DHT22;2012;49.794;9.722;2023-09-19T01:08:02;17.40;99.90
3996;DHT22;2012;49.794;9.722;2023-09-19T01:17:05;17.30;99.90
3996;DHT22;2012;49.794;9.722;2023-09-19T01:22:42;17.20;99.90
3996;DHT22;2012;49.794;9.722;2023-09-19T01:30:57;17.10;99.90
3996;DHT22;2012;49.794;9.722;2023-09-19T01:33:27;17.00;99.90
3996;DHT22;2012;49.794;9.722;2023-09-19T01:35:53;17.00;99.90
3996;DHT22;2012;49.794;9.722;2023-09-19T01:38:24;17.00;99.90
3996;DHT22;2012;49.794;9.722;2023-09-19T01:41:01;16.90;99.90
3996;DHT22;2012;49.794;9.722;2023-09-19T01:43:36;16.90;99.90
3996;DHT22;2012;49.794;9.722;2023-09-19T01:46:32;17.00;99.90
3996;DHT22;2012;49.794;9.722;2023-09-19T01:49:19;17.10;99.90
3996;DHT22;2012;49.794;9.722;2023-09-19T01:52:02;17.10;99.90
3996;DHT22;2012;49.794;9.722;2023-09-19T01:54:33;17.10;99.90
3996;DHT22;2012;49.794;9.722;2023-09-19T01:57:26;17.20;99.90
3996;DHT22;2012;49.794;9.722;2023-09-19T02:00:04;17.20;99.90
3996;DHT22;2012;49.794;9.722;2023-09-19T02:02:47;17.20;99.90
3996;DHT22;2012;49.794;9.722;2023-09-19T02:05:22;17.30;99.90
3996;DHT22;2012;49.794;9.722;2023-09-19T02:07:53;17.20;99.90
3996;DHT22;2012;49.794;9.722;2023-09-19T02:10:21;17.30;99.90
3996;DHT22;2012;49.794;9.722;2023-09-19T02:12:48;17.20;99.90
3996;DHT22;2012;49.794;9.722;2023-09-19T02:15:15;17.10;99.90
3996;DHT22;2012;49.794;9.722;2023-09-19T02:17:43;17.20;99.90
3996;DHT22;2012;49.794;9.722;2023-09-19T02:20:11;17.30;99.90
3996;DHT22;2012;49.794;9.722;2023-09-19T02:22:42;17.30;99.90
3996;DHT22;2012;49.794;9.722;2023-09-19T02:25:09;17.30;99.90
3996;DHT22;2012;49.794;9.722;2023-09-19T02:27:36;17.30;99.90
3996;DHT22;2012;49.794;9.722;2023-09-19T02:30:04;17.40;99.90
3996;DHT22;2012;49.794;9.722;2023-09-19T02:32:32;17.30;99.90
3996;DHT22;2012;49.794;9.722;2023-09-19T02:35:03;17.40;99.90
3996;DHT22;2012;49.794;9.722;2023-09-19T02:37:31;17.40;99.90
3996;DHT22;2012;49.794;9.722;2023-09-19T02:39:59;17.40;99.90
3996;DHT22;2012;49.794;9.722;2023-09-19T02:42:26;17.40;99.90
3996;DHT22;2012;49.794;9.722;2023-09-19T02:44:53;17.30;99.90
3996;DHT22;2012;49.794;9.722;2023-09-19T02:47:20;17.30;99.90
3996;DHT22;2012;49.794;9.722;2023-09-19T02:49:47;17.40;99.90
3996;DHT22;2012;49.794;9.722;2023-09-19T02:52:14;17.30;99.90
3996;DHT22;2012;49.794;9.722;2023-09-19T02:54:41;17.30;99.90
3996;DHT22;2012;49.794;9.722;2023-09-19T02:57:12;17.20;99.90
3996;DHT22;2012;49.794;9.722;2023-09-19T02:59:41;17.20;99.90
3996;DHT22;2012;49.794;9.722;2023-09-19T03:02:08;17.30;99.90
3996;DHT22;2012;49.794;9.722;2023-09-19T03:04:36;17.40;99.90
3996;DHT22;2012;49.794;9.722;2023-09-19T03:07:04;17.40;99.90
3996;DHT22;2012;49.794;9.722;2023-09-19T03:09:30;17.40;99.90
3996;DHT22;2012;49.794;9.722;2023-09-19T03:11:57;17.40;99.90
3996;DHT22;2012;49.794;9.722;2023-09-19T03:14:26;17.40;99.90
3996;DHT22;2012;49.794;9.722;2023-09-19T03:16:58;17.40;99.90
3996;DHT22;2012;49.794;9.722;2023-09-19T03:19:26;17.40;99.90
3996;DHT22;2012;49.794;9.722;2023-09-19T03:21:54;17.40;99.90
3996;DHT22;2012;49.794;9.722;2023-09-19T03:24:21;17.40;99.90
3996;DHT22;2012;49.794;9.722;2023-09-19T03:26:48;17.40;99.90
3996;DHT22;2012;49.794;9.722;2023-09-19T03:29:16;17.40;99.90
3996;DHT22;2012;49.794;9.722;2023-09-19T03:31:44;17.20;99.90
3996;DHT22;2012;49.794;9.722;2023-09-19T03:34:12;17.20;99.90
3996;DHT22;2012;49.794;9.722;2023-09-19T03:36:39;17.20;99.90
3996;DHT22;2012;49.794;9.722;2023-09-19T03:39:08;17.20;99.90
3996;DHT22;2012;49.794;9.722;2023-09-19T03:41:34;17.10;99.90
3996;DHT22;2012;49.794;9.722;2023-09-19T03:44:03;17.10;99.90
3996;DHT22;2012;49.794;9.722;2023-09-19T03:46:31;17.10;99.90
3996;DHT22;2012;49.794;9.722;2023-09-19T03:48:59;17.10;99.90
3996;DHT22;2012;49.794;9.722;2023-09-19T03:51:26;17.00;99.90
3996;DHT22;2012;49.794;9.722;2023-09-19T03:53:53;17.10;99.90
3996;DHT22;2012;49.794;9.722;2023-09-19T03:56:20;17.00;99.90
3996;DHT22;2012;49.794;9.722;2023-09-19T03:58:47;17.10;99.90
3996;DHT22;2012;49.794;9.722;2023-09-19T04:01:14;17.10;99.90
3996;DHT22;2012;49.794;9.722;2023-09-19T04:03:41;17.00;99.90
3996;DHT22;2012;49.794;9.722;2023-09-19T04:06:15;17.00;99.90
3996;DHT22;2012;49.794;9.722;2023-09-19T04:08:43;17.10;99.90
3996;DHT22;2012;49.794;9.722;2023-09-19T04:11:11;17.20;99.90
3996;DHT22;2012;49.794;9.722;2023-09-19T04:13:38;17.10;99.90
3996;DHT22;2012;49.794;9.722;2023-09-19T04:16:06;17.00;99.90
3996;DHT22;2012;49.794;9.722;2023-09-19T04:18:37;17.00;99.90
3996;DHT22;2012;49.794;9.722;2023-09-19T04:21:05;17.00;99.90
3996;DHT22;2012;49.794;9.722;2023-09-19T04:23:33;17.10;99.90
3996;DHT22;2012;49.794;9.722;2023-09-19T04:26:00;17.00;99.90
3996;DHT22;2012;49.794;9.722;2023-09-19T04:28:27;17.00;99.90
3996;DHT22;2012;49.794;9.722;2023-09-19T04:30:57;17.00;99.90
3996;DHT22;2012;49.794;9.722;2023-09-19T04:33:25;17.00;99.90
3996;DHT22;2012;49.794;9.722;2023-09-19T04:35:53;16.90;99.90
3996;DHT22;2012;49.794;9.722;2023-09-19T04:38:20;16.90;99.90
3996;DHT22;2012;49.794;9.722;2023-09-19T04:40:48;16.90;99.90
3996;DHT22;2012;49.794;9.722;2023-09-19T04:43:15;16.90;99.90
3996;DHT22;2012;49.794;9.722;2023-09-19T04:45:43;16.90;99.90
3996;DHT22;2012;49.794;9.722;2023-09-19T04:48:10;16.90;99.90
3996;DHT22;2012;49.794;9.722;2023-09-19T04:50:37;16.90;99.90
3996;DHT22;2012;49.794;9.722;2023-09-19T04:53:05;16.90;99.90
3996;DHT22;2012;49.794;9.722;2023-09-19T04:55:32;16.90;99.90
3996;DHT22;2012;49.794;9.722;2023-09-19T04:57:59;16.80;99.90
3996;DHT22;2012;49.794;9.722;2023-09-19T05:00:26;16.70;99.90
3996;DHT22;2012;49.794;9.722;2023-09-19T05:02:57;16.80;99.90
3996;DHT22;2012;49.794;9.722;2023-09-19T05:05:25;16.80;99.90
3996;DHT22;2012;49.794;9.722;2023-09-19T05:07:52;16.80;99.90
3996;DHT22;2012;49.794;9.722;2023-09-19T05:10:21;16.80;99.90
3996;DHT22;2012;49.794;9.722;2023-09-19T05:12:48;16.80;99.90
3996;DHT22;2012;49.794;9.722;2023-09-19T05:15:18;16.70;99.90
3996;DHT22;2012;49.794;9.722;2023-09-19T05:17:49;16.70;99.90
3996;DHT22;2012;49.794;9.722;2023-09-19T05:20:24;16.70;99.90
3996;DHT22;2012;49.794;9.722;2023-09-19T05:23:04;16.70;99.90
3996;DHT22;2012;49.794;9.722;2023-09-19T05:25:36;16.70;99.90
3996;DHT22;2012;49.794;9.722;2023-09-19T05:28:07;16.70;99.90
3996;DHT22;2012;49.794;9.722;2023-09-19T05:30:35;16.70;99.90
3996;DHT22;2012;49.794;9.722;2023-09-19T05:33:12;16.70;99.90
3996;DHT22;2012;49.794;9.722;2023-09-19T05:35:39;16.80;99.90
3996;DHT22;2012;49.794;9.722;2023-09-19T05:38:08;16.80;99.90
3996;DHT22;2012;49.794;9.722;2023-09-19T05:40:36;16.80;99.90
3996;DHT22;2012;49.794;9.722;2023-09-19T05:43:04;16.70;99.90
3996;DHT22;2012;49.794;9.722;2023-09-19T05:45:32;16.70;99.90
3996;DHT22;2012;49.794;9.722;2023-09-19T05:48:11;16.80;99.90
3996;DHT22;2012;49.794;9.722;2023-09-19T05:50:38;16.70;99.90
3996;DHT22;2012;49.794;9.722;2023-09-19T05:53:06;16.70;99.90
3996;DHT22;2012;49.794;9.722;2023-09-19T05:55:33;16.70;99.90
3996;DHT22;2012;49.794;9.722;2023-09-19T05:58:00;16.70;99.90
3996;DHT22;2012;49.794;9.722;2023-09-19T06:00:27;16.70;99.90
3996;DHT22;2012;49.794;9.722;2023-09-19T06:02:55;16.70;99.90
3996;DHT22;2012;49.794;9.722;2023-09-19T06:05:24;16.70;99.90
3996;DHT22;2012;49.794;9.722;2023-09-19T06:07:53;16.60;99.90
3996;DHT22;2012;49.794;9.722;2023-09-19T06:10:20;16.70;99.90
3996;DHT22;2012;49.794;9.722;2023-09-19T06:12:49;16.70;99.90
3996;DHT22;2012;49.794;9.722;2023-09-19T06:15:16;16.70;99.90
3996;DHT22;2012;49.794;9.722;2023-09-19T06:17:54;16.70;99.90
3996;DHT22;2012;49.794;9.722;2023-09-19T06:20:23;16.80;99.90
3996;DHT22;2012;49.794;9.722;2023-09-19T06:22:51;16.80;99.90
3996;DHT22;2012;49.794;9.722;2023-09-19T06:25:19;16.80;99.90
3996;DHT22;2012;49.794;9.722;2023-09-19T06:27:53;16.80;99.90
3996;DHT22;2012;49.794;9.722;2023-09-19T06:30:22;16.70;99.90
3996;DHT22;2012;49.794;9.722;2023-09-19T06:32:58;16.80;99.90
3996;DHT22;2012;49.794;9.722;2023-09-19T06:35:27;16.70;99.90
3996;DHT22;2012;49.794;9.722;2023-09-19T06:37:56;16.80;99.90
3996;DHT22;2012;49.794;9.722;2023-09-19T06:40:25;16.80;99.90
3996;DHT22;2012;49.794;9.722;2023-09-19T06:42:52;16.80;99.90
3996;DHT22;2012;49.794;9.722;2023-09-19T06:45:20;16.70;99.90
3996;DHT22;2012;49.794;9.722;2023-09-19T06:47:50;16.80;99.90
3996;DHT22;2012;49.794;9.722;2023-09-19T06:50:20;16.80;99.90
3996;DHT22;2012;49.794;9.722;2023-09-19T06:52:53;16.80;99.90
3996;DHT22;2012;49.794;9.722;2023-09-19T06:55:22;16.80;99.90
3996;DHT22;2012;49.794;9.722;2023-09-19T06:57:55;16.80;99.90
3996;DHT22;2012;49.794;9.722;2023-09-19T07:00:22;16.80;99.90
3996;DHT22;2012;49.794;9.722;2023-09-19T07:03:04;16.90;99.90
3996;DHT22;2012;49.794;9.722;2023-09-19T07:05:35;17.00;99.90
3996;DHT22;2012;49.794;9.722;2023-09-19T07:08:08;16.90;99.90
3996;DHT22;2012;49.794;9.722;2023-09-19T07:10:38;17.00;99.90
3996;DHT22;2012;49.794;9.722;2023-09-19T07:13:07;17.00;99.90
3996;DHT22;2012;49.794;9.722;2023-09-19T07:15:38;16.90;99.90
3996;DHT22;2012;49.794;9.722;2023-09-19T07:18:08;16.90;99.90
3996;DHT22;2012;49.794;9.722;2023-09-19T07:20:38;17.00;99.90
3996;DHT22;2012;49.794;9.722;2023-09-19T07:23:05;16.90;99.90
3996;DHT22;2012;49.794;9.722;2023-09-19T07:25:32;17.10;99.90
3996;DHT22;2012;49.794;9.722;2023-09-19T07:28:00;17.00;99.90
3996;DHT22;2012;49.794;9.722;2023-09-19T07:30:28;17.00;99.90
3996;DHT22;2012;49.794;9.722;2023-09-19T07:32:55;17.10;99.90
3996;DHT22;2012;49.794;9.722;2023-09-19T07:35:23;17.00;99.90
3996;DHT22;2012;49.794;9.722;2023-09-19T07:37:50;17.10;99.90
3996;DHT22;2012;49.794;9.722;2023-09-19T07:40:18;17.20;99.90
3996;DHT22;2012;49.794;9.722;2023-09-19T07:42:45;17.20;99.90
3996;DHT22;2012;49.794;9.722;2023-09-19T07:45:14;17.10;99.90
3996;DHT22;2012;49.794;9.722;2023-09-19T07:47:44;17.30;99.90
3996;DHT22;2012;49.794;9.722;2023-09-19T07:50:13;17.20;99.90
3996;DHT22;2012;49.794;9.722;2023-09-19T07:52:40;17.30;99.90
3996;DHT22;2012;49.794;9.722;2023-09-19T07:55:07;17.20;99.90
3996;DHT22;2012;49.794;9.722;2023-09-19T07:57:38;17.10;99.90
3996;DHT22;2012;49.794;9.722;2023-09-19T08:00:05;17.20;99.90
3996;DHT22;2012;49.794;9.722;2023-09-19T08:02:37;17.30;99.90
3996;DHT22;2012;49.794;9.722;2023-09-19T08:05:06;17.30;99.90
3996;DHT22;2012;49.794;9.722;2023-09-19T08:07:33;17.30;99.90
3996;DHT22;2012;49.794;9.722;2023-09-19T08:10:00;17.40;99.90
3996;DHT22;2012;49.794;9.722;2023-09-19T08:12:27;17.40;99.90
3996;DHT22;2012;49.794;9.722;2023-09-19T08:14:53;17.40;99.90
3996;DHT22;2012;49.794;9.722;2023-09-19T08:17:22;17.40;99.90
3996;DHT22;2012;49.794;9.722;2023-09-19T08:19:52;17.60;99.90
3996;DHT22;2012;49.794;9.722;2023-09-19T08:22:20;17.60;99.90
3996;DHT22;2012;49.794;9.722;2023-09-19T08:24:47;17.60;99.90
3996;DHT22;2012;49.794;9.722;2023-09-19T08:27:14;17.60;99.90
3996;DHT22;2012;49.794;9.722;2023-09-19T08:29:45;17.60;99.90
3996;DHT22;2012;49.794;9.722;2023-09-19T08:32:13;17.70;99.90
3996;DHT22;2012;49.794;9.722;2023-09-19T08:34:41;17.70;99.90
3996;DHT22;2012;49.794;9.722;2023-09-19T08:37:08;17.80;99.90
3996;DHT22;2012;49.794;9.722;2023-09-19T08:39:35;17.80;99.90
3996;DHT22;2012;49.794;9.722;2023-09-19T08:42:03;17.90;99.90
3996;DHT22;2012;49.794;9.722;2023-09-19T08:44:36;17.80;99.90
3996;DHT22;2012;49.794;9.722;2023-09-19T08:47:10;17.80;99.90
3996;DHT22;2012;49.794;9.722;2023-09-19T08:52:25;17.90;99.90
3996;DHT22;2012;49.794;9.722;2023-09-19T08:54:58;17.90;99.90
3996;DHT22;2012;49.794;9.722;2023-09-19T08:57:28;17.90;99.90
3996;DHT22;2012;49.794;9.722;2023-09-19T08:59:57;18.00;99.90
3996;DHT22;2012;49.794;9.722;2023-09-19T09:02:24;18.10;99.90
3996;DHT22;2012;49.794;9.722;2023-09-19T09:04:52;18.20;99.90
3996;DHT22;2012;49.794;9.722;2023-09-19T09:07:21;18.20;99.90
3996;DHT22;2012;49.794;9.722;2023-09-19T09:09:49;18.10;99.90
3996;DHT22;2012;49.794;9.722;2023-09-19T09:12:16;18.20;99.90
3996;DHT22;2012;49.794;9.722;2023-09-19T09:14:45;18.20;99.90
3996;DHT22;2012;49.794;9.722;2023-09-19T09:17:17;18.30;99.90
3996;DHT22;2012;49.794;9.722;2023-09-19T09:19:47;18.20;99.90
3996;DHT22;2012;49.794;9.722;2023-09-19T09:22:14;18.20;99.90
3996;DHT22;2012;49.794;9.722;2023-09-19T09:24:55;18.30;99.90
3996;DHT22;2012;49.794;9.722;2023-09-19T09:27:24;18.40;99.90
3996;DHT22;2012;49.794;9.722;2023-09-19T09:29:52;18.50;99.90
3996;DHT22;2012;49.794;9.722;2023-09-19T09:32:26;18.60;99.90
3996;DHT22;2012;49.794;9.722;2023-09-19T09:34:57;18.70;99.90
3996;DHT22;2012;49.794;9.722;2023-09-19T09:37:28;18.60;99.90
3996;DHT22;2012;49.794;9.722;2023-09-19T09:40:01;18.60;99.90
3996;DHT22;2012;49.794;9.722;2023-09-19T09:42:46;18.40;99.90
3996;DHT22;2012;49.794;9.722;2023-09-19T09:45:18;18.40;99.90
3996;DHT22;2012;49.794;9.722;2023-09-19T09:47:47;18.50;99.90
3996;DHT22;2012;49.794;9.722;2023-09-19T09:50:34;18.70;99.90
3996;DHT22;2012;49.794;9.722;2023-09-19T09:53:27;18.80;99.90
3996;DHT22;2012;49.794;9.722;2023-09-19T09:56:17;18.90;99.90
3996;DHT22;2012;49.794;9.722;2023-09-19T09:58:52;19.00;99.90
3996;DHT22;2012;49.794;9.722;2023-09-19T10:01:25;19.10;99.90
3996;DHT22;2012;49.794;9.722;2023-09-19T10:03:59;19.10;99.90
3996;DHT22;2012;49.794;9.722;2023-09-19T10:06:40;19.00;99.90
3996;DHT22;2012;49.794;9.722;2023-09-19T10:09:14;19.10;99.90
3996;DHT22;2012;49.794;9.722;2023-09-19T10:11:48;19.20;99.90
3996;DHT22;2012;49.794;9.722;2023-09-19T10:14:26;19.20;99.90
3996;DHT22;2012;49.794;9.722;2023-09-19T10:17:00;19.40;99.90
3996;DHT22;2012;49.794;9.722;2023-09-19T10:19:37;19.60;99.90
3996;DHT22;2012;49.794;9.722;2023-09-19T10:22:05;19.70;99.90
3996;DHT22;2012;49.794;9.722;2023-09-19T10:24:36;19.80;99.90
3996;DHT22;2012;49.794;9.722;2023-09-19T10:27:19;19.70;99.90
3996;DHT22;2012;49.794;9.722;2023-09-19T10:29:49;19.70;99.90
3996;DHT22;2012;49.794;9.722;2023-09-19T10:32:18;19.90;99.90
3996;DHT22;2012;49.794;9.722;2023-09-19T10:34:50;20.20;99.90
3996;DHT22;2012;49.794;9.722;2023-09-19T10:37:18;20.40;99.90
3996;DHT22;2012;49.794;9.722;2023-09-19T10:39:47;20.40;99.90
3996;DHT22;2012;49.794;9.722;2023-09-19T10:42:19;20.50;99.90
3996;DHT22;2012;49.794;9.722;2023-09-19T10:44:50;20.50;99.90
3996;DHT22;2012;49.794;9.722;2023-09-19T10:47:20;20.40;99.90
3996;DHT22;2012;49.794;9.722;2023-09-19T10:49:51;20.40;99.90
3996;DHT22;2012;49.794;9.722;2023-09-19T10:52:24;20.40;99.90
3996;DHT22;2012;49.794;9.722;2023-09-19T10:54:55;20.40;99.90
3996;DHT22;2012;49.794;9.722;2023-09-19T10:57:25;20.50;99.90
3996;DHT22;2012;49.794;9.722;2023-09-19T11:00:07;20.50;99.90
3996;DHT22;2012;49.794;9.722;2023-09-19T11:11:40;20.60;99.90
3996;DHT22;2012;49.794;9.722;2023-09-19T11:30:43;20.50;99.90
3996;DHT22;2012;49.794;9.722;2023-09-19T11:46:53;21.30;99.60
3996;DHT22;2012;49.794;9.722;2023-09-19T11:49:31;21.40;99.30
3996;DHT22;2012;49.794;9.722;2023-09-19T11:52:00;21.40;97.80
3996;DHT22;2012;49.794;9.722;2023-09-19T11:54:28;21.30;98.80
3996;DHT22;2012;49.794;9.722;2023-09-19T11:57:00;21.40;97.90
3996;DHT22;2012;49.794;9.722;2023-09-19T11:59:29;21.50;97.30
3996;DHT22;2012;49.794;9.722;2023-09-19T12:02:05;21.70;97.20
3996;DHT22;2012;49.794;9.722;2023-09-19T12:04:41;21.70;96.90
3996;DHT22;2012;49.794;9.722;2023-09-19T12:07:12;21.70;95.90
3996;DHT22;2012;49.794;9.722;2023-09-19T12:09:45;21.70;96.20
3996;DHT22;2012;49.794;9.722;2023-09-19T12:12:22;22.00;96.10
3996;DHT22;2012;49.794;9.722;2023-09-19T12:14:50;22.00;95.70
3996;DHT22;2012;49.794;9.722;2023-09-19T12:17:17;22.20;95.80
3996;DHT22;2012;49.794;9.722;2023-09-19T12:19:56;22.40;98.50
3996;DHT22;2012;49.794;9.722;2023-09-19T12:22:23;22.10;96.10
3996;DHT22;2012;49.794;9.722;2023-09-19T12:24:51;22.20;95.90
3996;DHT22;2012;49.794;9.722;2023-09-19T12:27:21;22.10;96.50
3996;DHT22;2012;49.794;9.722;2023-09-19T12:29:49;22.10;95.40
3996;DHT22;2012;49.794;9.722;2023-09-19T12:32:16;21.90;96.20
3996;DHT22;2012;49.794;9.722;2023-09-19T12:34:52;21.90;96.80
3996;DHT22;2012;49.794;9.722;2023-09-19T12:37:21;21.70;97.00
3996;DHT22;2012;49.794;9.722;2023-09-19T12:39:51;22.20;96.70
3996;DHT22;2012;49.794;9.722;2023-09-19T12:42:26;22.30;95.70
3996;DHT22;2012;49.794;9.722;2023-09-19T12:44:58;22.40;96.20
3996;DHT22;2012;49.794;9.722;2023-09-19T12:47:28;22.40;94.80
3996;DHT22;2012;49.794;9.722;2023-09-19T12:52:47;22.80;94.80
3996;DHT22;2012;49.794;9.722;2023-09-19T12:55:29;22.60;93.40
3996;DHT22;2012;49.794;9.722;2023-09-19T13:00:39;22.80;93.50
3996;DHT22;2012;49.794;9.722;2023-09-19T13:03:18;22.80;93.10
3996;DHT22;2012;49.794;9.722;2023-09-19T13:05:53;22.90;90.40
3996;DHT22;2012;49.794;9.722;2023-09-19T13:08:27;22.90;90.90
3996;DHT22;2012;49.794;9.722;2023-09-19T13:11:06;23.10;91.30
3996;DHT22;2012;49.794;9.722;2023-09-19T13:13:34;23.00;90.70
3996;DHT22;2012;49.794;9.722;2023-09-19T13:16:03;22.90;90.40
3996;DHT22;2012;49.794;9.722;2023-09-19T13:18:51;23.10;90.60
3996;DHT22;2012;49.794;9.722;2023-09-19T13:21:29;23.10;90.30
3996;DHT22;2012;49.794;9.722;2023-09-19T13:24:20;23.20;90.00
3996;DHT22;2012;49.794;9.722;2023-09-19T13:26:47;23.30;88.90
3996;DHT22;2012;49.794;9.722;2023-09-19T13:29:15;23.50;90.00
3996;DHT22;2012;49.794;9.722;2023-09-19T13:31:48;22.70;87.30
3996;DHT22;2012;49.794;9.722;2023-09-19T13:34:16;23.00;87.00
3996;DHT22;2012;49.794;9.722;2023-09-19T13:36:44;22.90;85.90
3996;DHT22;2012;49.794;9.722;2023-09-19T13:39:11;23.30;88.90
3996;DHT22;2012;49.794;9.722;2023-09-19T13:41:47;23.40;87.10
3996;DHT22;2012;49.794;9.722;2023-09-19T13:44:15;23.50;87.60
3996;DHT22;2012;49.794;9.722;2023-09-19T13:46:44;23.40;84.80
3996;DHT22;2012;49.794;9.722;2023-09-19T13:49:14;23.50;88.20
3996;DHT22;2012;49.794;9.722;2023-09-19T13:51:42;23.30;84.50
3996;DHT22;2012;49.794;9.722;2023-09-19T13:54:11;23.60;85.30
3996;DHT22;2012;49.794;9.722;2023-09-19T13:56:41;23.90;84.40
3996;DHT22;2012;49.794;9.722;2023-09-19T13:59:08;23.70;82.80
3996;DHT22;2012;49.794;9.722;2023-09-19T14:01:35;23.70;83.30
3996;DHT22;2012;49.794;9.722;2023-09-19T14:04:02;23.70;83.40
3996;DHT22;2012;49.794;9.722;2023-09-19T14:06:29;23.80;82.50
3996;DHT22;2012;49.794;9.722;2023-09-19T14:08:56;23.90;83.70
3996;DHT22;2012;49.794;9.722;2023-09-19T14:11:23;24.00;84.10
3996;DHT22;2012;49.794;9.722;2023-09-19T14:13:49;24.00;84.40
3996;DHT22;2012;49.794;9.722;2023-09-19T14:16:21;23.90;83.70
3996;DHT22;2012;49.794;9.722;2023-09-19T14:18:49;23.70;84.80
3996;DHT22;2012;49.794;9.722;2023-09-19T14:21:15;23.60;84.40
3996;DHT22;2012;49.794;9.722;2023-09-19T14:23:43;23.30;86.70
3996;DHT22;2012;49.794;9.722;2023-09-19T14:26:10;23.20;86.90
3996;DHT22;2012;49.794;9.722;2023-09-19T14:28:37;23.20;88.00
3996;DHT22;2012;49.794;9.722;2023-09-19T14:31:10;23.20;87.80
3996;DHT22;2012;49.794;9.722;2023-09-19T14:33:37;23.20;87.20
3996;DHT22;2012;49.794;9.722;2023-09-19T14:36:06;23.20;86.20
3996;DHT22;2012;49.794;9.722;2023-09-19T14:38:34;23.20;86.60
3996;DHT22;2012;49.794;9.722;2023-09-19T14:41:02;23.10;86.10
3996;DHT22;2012;49.794;9.722;2023-09-19T14:43:29;22.80;88.50
3996;DHT22;2012;49.794;9.722;2023-09-19T14:45:57;22.80;87.10
3996;DHT22;2012;49.794;9.722;2023-09-19T14:48:24;22.70;89.10
3996;DHT22;2012;49.794;9.722;2023-09-19T14:50:52;22.80;90.70
3996;DHT22;2012;49.794;9.722;2023-09-19T14:53:20;22.80;86.80
3996;DHT22;2012;49.794;9.722;2023-09-19T14:55:47;22.60;87.60
3996;DHT22;2012;49.794;9.722;2023-09-19T14:58:18;22.50;88.40
3996;DHT22;2012;49.794;9.722;2023-09-19T15:00:45;22.60;88.70
3996;DHT22;2012;49.794;9.722;2023-09-19T15:03:12;22.70;88.40
3996;DHT22;2012;49.794;9.722;2023-09-19T15:05:40;22.60;87.50
3996;DHT22;2012;49.794;9.722;2023-09-19T15:08:07;22.60;87.90
3996;DHT22;2012;49.794;9.722;2023-09-19T15:10:34;22.30;87.70
3996;DHT22;2012;49.794;9.722;2023-09-19T15:13:01;22.30;89.60
3996;DHT22;2012;49.794;9.722;2023-09-19T15:15:28;22.40;89.50
3996;DHT22;2012;49.794;9.722;2023-09-19T15:17:55;22.30;89.80
3996;DHT22;2012;49.794;9.722;2023-09-19T15:20:23;22.20;90.70
3996;DHT22;2012;49.794;9.722;2023-09-19T15:22:50;22.10;90.80
3996;DHT22;2012;49.794;9.722;2023-09-19T15:25:17;22.10;91.20
3996;DHT22;2012;49.794;9.722;2023-09-19T15:27:44;22.00;91.60
3996;DHT22;2012;49.794;9.722;2023-09-19T15:30:12;21.90;90.80
3996;DHT22;2012;49.794;9.722;2023-09-19T15:32:41;21.90;90.80
3996;DHT22;2012;49.794;9.722;2023-09-19T15:35:09;21.90;92.00
3996;DHT22;2012;49.794;9.722;2023-09-19T15:37:39;21.90;91.20
3996;DHT22;2012;49.794;9.722;2023-09-19T15:40:07;21.90;93.10
3996;DHT22;2012;49.794;9.722;2023-09-19T15:42:37;22.00;92.20
3996;DHT22;2012;49.794;9.722;2023-09-19T15:45:05;21.90;92.20
3996;DHT22;2012;49.794;9.722;2023-09-19T15:47:32;21.80;92.00
3996;DHT22;2012;49.794;9.722;2023-09-19T15:49:59;21.80;93.10
3996;DHT22;2012;49.794;9.722;2023-09-19T15:52:26;21.60;92.60
3996;DHT22;2012;49.794;9.722;2023-09-19T15:54:53;21.60;93.10
3996;DHT22;2012;49.794;9.722;2023-09-19T15:57:20;21.60;93.10
3996;DHT22;2012;49.794;9.722;2023-09-19T15:59:47;21.70;93.30
3996;DHT22;2012;49.794;9.722;2023-09-19T16:02:14;21.50;93.70
3996;DHT22;2012;49.794;9.722;2023-09-19T16:04:41;21.50;94.80
3996;DHT22;2012;49.794;9.722;2023-09-19T16:07:10;21.60;94.80
3996;DHT22;2012;49.794;9.722;2023-09-19T16:09:37;21.60;94.60
3996;DHT22;2012;49.794;9.722;2023-09-19T16:12:04;21.40;94.90
3996;DHT22;2012;49.794;9.722;2023-09-19T16:14:31;21.40;95.30
3996;DHT22;2012;49.794;9.722;2023-09-19T16:16:58;21.40;95.70
3996;DHT22;2012;49.794;9.722;2023-09-19T16:19:26;21.40;95.60
3996;DHT22;2012;49.794;9.722;2023-09-19T16:21:53;21.40;96.00
3996;DHT22;2012;49.794;9.722;2023-09-19T16:24:20;21.40;96.20
3996;DHT22;2012;49.794;9.722;2023-09-19T16:26:46;21.30;97.20
3996;DHT22;2012;49.794;9.722;2023-09-19T16:29:13;21.20;97.70
3996;DHT22;2012;49.794;9.722;2023-09-19T16:31:40;21.20;98.00
3996;DHT22;2012;49.794;9.722;2023-09-19T16:34:08;21.20;98.70
3996;DHT22;2012;49.794;9.722;2023-09-19T16:36:36;21.10;98.90
3996;DHT22;2012;49.794;9.722;2023-09-19T16:39:03;21.20;99.00
3996;DHT22;2012;49.794;9.722;2023-09-19T16:41:31;21.20;99.20
3996;DHT22;2012;49.794;9.722;2023-09-19T16:43:58;21.10;99.90
3996;DHT22;2012;49.794;9.722;2023-09-19T16:46:25;20.90;99.90
3996;DHT22;2012;49.794;9.722;2023-09-19T16:48:52;21.00;99.90
3996;DHT22;2012;49.794;9.722;2023-09-19T16:51:31;20.90;99.90
3996;DHT22;2012;49.794;9.722;2023-09-19T16:53:58;21.00;99.90
3996;DHT22;2012;49.794;9.722;2023-09-19T16:56:25;20.90;99.90
3996;DHT22;2012;49.794;9.722;2023-09-19T16:58:53;20.70;99.90
3996;DHT22;2012;49.794;9.722;2023-09-19T17:01:20;20.50;99.90
3996;DHT22;2012;49.794;9.722;2023-09-19T17:03:48;20.50;99.90
3996;DHT22;2012;49.794;9.722;2023-09-19T17:06:17;20.60;99.90
3996;DHT22;2012;49.794;9.722;2023-09-19T17:08:47;20.60;99.90
3996;DHT22;2012;49.794;9.722;2023-09-19T17:11:15;20.50;99.90
3996;DHT22;2012;49.794;9.722;2023-09-19T17:13:45;20.40;99.90
3996;DHT22;2012;49.794;9.722;2023-09-19T17:16:17;20.30;99.90
3996;DHT22;2012;49.794;9.722;2023-09-19T17:18:53;20.20;99.90
3996;DHT22;2012;49.794;9.722;2023-09-19T17:21:21;20.10;99.90